sensor_id;sensor_type;location;lat;lon;timestamp;P1;durP1;ratioP1;P2;durP2;ratioP2
48813;SDS011;34634;44.108;3.074;2023-05-07T00:00:48;7.05;;;1.17;;
48813;SDS011;34634;44.108;3.074;2023-05-07T00:03:15;3.20;;;1.17;;
48813;SDS011;34634;44.108;3.074;2023-05-07T00:05:41;3.63;;;1.20;;
48813;SDS011;34634;44.108;3.074;2023-05-07T00:08:07;2.33;;;1.10;;
48813;SDS011;34634;44.108;3.074;2023-05-07T00:10:34;2.60;;;1.08;;
48813;SDS011;34634;44.108;3.074;2023-05-07T00:13:00;3.22;;;1.13;;
48813;SDS011;34634;44.108;3.074;2023-05-07T00:15:26;1.73;;;1.13;;
48813;SDS011;34634;44.108;3.074;2023-05-07T00:17:53;2.60;;;1.50;;
48813;SDS011;34634;44.108;3.074;2023-05-07T00:20:19;2.78;;;1.20;;
48813;SDS011;34634;44.108;3.074;2023-05-07T00:22:46;2.10;;;1.05;;
48813;SDS011;34634;44.108;3.074;2023-05-07T00:25:12;1.98;;;1.13;;
48813;SDS011;34634;44.108;3.074;2023-05-07T00:27:38;2.70;;;1.10;;
48813;SDS011;34634;44.108;3.074;2023-05-07T00:30:05;3.17;;;1.10;;
48813;SDS011;34634;44.108;3.074;2023-05-07T00:32:32;0.98;;;0.88;;
48813;SDS011;34634;44.108;3.074;2023-05-07T00:34:58;3.80;;;1.30;;
48813;SDS011;34634;44.108;3.074;2023-05-07T00:37:24;1.10;;;1.00;;
48813;SDS011;34634;44.108;3.074;2023-05-07T00:39:51;1.17;;;1.00;;
48813;SDS011;34634;44.108;3.074;2023-05-07T00:42:17;2.55;;;1.00;;
48813;SDS011;34634;44.108;3.074;2023-05-07T00:44:43;2.42;;;1.02;;
48813;SDS011;34634;44.108;3.074;2023-05-07T00:47:10;2.33;;;1.13;;
48813;SDS011;34634;44.108;3.074;2023-05-07T00:49:37;1.42;;;1.10;;
48813;SDS011;34634;44.108;3.074;2023-05-07T00:52:05;2.90;;;0.98;;
48813;SDS011;34634;44.108;3.074;2023-05-07T00:54:32;2.33;;;1.10;;
48813;SDS011;34634;44.108;3.074;2023-05-07T00:56:59;1.58;;;1.10;;
48813;SDS011;34634;44.108;3.074;2023-05-07T00:59:26;3.97;;;1.08;;
48813;SDS011;34634;44.108;3.074;2023-05-07T01:01:52;4.45;;;1.23;;
48813;SDS011;34634;44.108;3.074;2023-05-07T01:04:18;1.42;;;1.08;;
48813;SDS011;34634;44.108;3.074;2023-05-07T01:06:45;1.95;;;1.08;;
48813;SDS011;34634;44.108;3.074;2023-05-07T01:09:11;2.28;;;1.10;;
48813;SDS011;34634;44.108;3.074;2023-05-07T01:11:38;3.60;;;1.08;;
48813;SDS011;34634;44.108;3.074;2023-05-07T01:14:05;2.97;;;1.38;;
48813;SDS011;34634;44.108;3.074;2023-05-07T01:16:32;2.13;;;1.42;;
48813;SDS011;34634;44.108;3.074;2023-05-07T01:18:58;2.15;;;1.38;;
48813;SDS011;34634;44.108;3.074;2023-05-07T01:21:26;2.08;;;1.25;;
48813;SDS011;34634;44.108;3.074;2023-05-07T01:23:53;1.55;;;1.15;;
48813;SDS011;34634;44.108;3.074;2023-05-07T01:26:20;1.35;;;0.98;;
48813;SDS011;34634;44.108;3.074;2023-05-07T01:28:47;2.10;;;1.38;;
48813;SDS011;34634;44.108;3.074;2023-05-07T01:31:13;2.63;;;1.23;;
48813;SDS011;34634;44.108;3.074;2023-05-07T01:33:40;2.17;;;1.08;;
48813;SDS011;34634;44.108;3.074;2023-05-07T01:36:07;1.92;;;1.15;;
48813;SDS011;34634;44.108;3.074;2023-05-07T01:38:36;2.17;;;1.05;;
48813;SDS011;34634;44.108;3.074;2023-05-07T01:41:02;4.72;;;1.20;;
48813;SDS011;34634;44.108;3.074;2023-05-07T01:43:29;1.27;;;0.98;;
48813;SDS011;34634;44.108;3.074;2023-05-07T01:45:57;5.07;;;1.00;;
48813;SDS011;34634;44.108;3.074;2023-05-07T01:48:24;3.80;;;1.05;;
48813;SDS011;34634;44.108;3.074;2023-05-07T01:50:50;3.88;;;1.40;;
48813;SDS011;34634;44.108;3.074;2023-05-07T01:53:17;2.20;;;1.38;;
48813;SDS011;34634;44.108;3.074;2023-05-07T01:55:43;2.72;;;1.20;;
48813;SDS011;34634;44.108;3.074;2023-05-07T01:58:10;1.27;;;1.10;;
48813;SDS011;34634;44.108;3.074;2023-05-07T02:00:36;1.85;;;1.20;;
48813;SDS011;34634;44.108;3.074;2023-05-07T02:03:03;4.22;;;1.40;;
48813;SDS011;34634;44.108;3.074;2023-05-07T02:05:29;3.13;;;1.35;;
48813;SDS011;34634;44.108;3.074;2023-05-07T02:07:56;1.23;;;1.05;;
48813;SDS011;34634;44.108;3.074;2023-05-07T02:10:22;1.70;;;1.30;;
48813;SDS011;34634;44.108;3.074;2023-05-07T02:12:48;2.83;;;1.33;;
48813;SDS011;34634;44.108;3.074;2023-05-07T02:15:15;3.28;;;1.23;;
48813;SDS011;34634;44.108;3.074;2023-05-07T02:20:26;4.82;;;1.40;;
48813;SDS011;34634;44.108;3.074;2023-05-07T02:22:52;2.05;;;1.23;;
48813;SDS011;34634;44.108;3.074;2023-05-07T02:25:19;7.72;;;1.65;;
48813;SDS011;34634;44.108;3.074;2023-05-07T02:27:45;6.60;;;2.10;;
48813;SDS011;34634;44.108;3.074;2023-05-07T02:30:11;8.07;;;2.38;;
48813;SDS011;34634;44.108;3.074;2023-05-07T02:32:38;12.02;;;2.38;;
48813;SDS011;34634;44.108;3.074;2023-05-07T02:35:05;12.27;;;1.88;;
48813;SDS011;34634;44.108;3.074;2023-05-07T02:37:31;7.68;;;2.33;;
48813;SDS011;34634;44.108;3.074;2023-05-07T02:39:57;8.35;;;2.28;;
48813;SDS011;34634;44.108;3.074;2023-05-07T02:42:24;6.00;;;2.40;;
48813;SDS011;34634;44.108;3.074;2023-05-07T02:44:52;5.78;;;2.35;;
48813;SDS011;34634;44.108;3.074;2023-05-07T02:47:18;5.93;;;2.42;;
48813;SDS011;34634;44.108;3.074;2023-05-07T02:49:44;12.20;;;2.75;;
48813;SDS011;34634;44.108;3.074;2023-05-07T02:52:10;7.00;;;2.38;;
48813;SDS011;34634;44.108;3.074;2023-05-07T02:54:37;4.15;;;2.40;;
48813;SDS011;34634;44.108;3.074;2023-05-07T02:57:03;7.22;;;2.50;;
48813;SDS011;34634;44.108;3.074;2023-05-07T02:59:29;7.35;;;2.22;;
48813;SDS011;34634;44.108;3.074;2023-05-07T03:01:56;9.02;;;2.92;;
48813;SDS011;34634;44.108;3.074;2023-05-07T03:04:22;10.07;;;2.30;;
48813;SDS011;34634;44.108;3.074;2023-05-07T03:06:48;4.90;;;2.10;;
48813;SDS011;34634;44.108;3.074;2023-05-07T03:09:15;5.38;;;1.90;;
48813;SDS011;34634;44.108;3.074;2023-05-07T03:11:41;6.82;;;2.28;;
48813;SDS011;34634;44.108;3.074;2023-05-07T03:14:08;7.60;;;2.15;;
48813;SDS011;34634;44.108;3.074;2023-05-07T03:16:34;4.32;;;1.92;;
48813;SDS011;34634;44.108;3.074;2023-05-07T03:19:01;4.80;;;2.10;;
48813;SDS011;34634;44.108;3.074;2023-05-07T03:21:27;6.57;;;2.03;;
48813;SDS011;34634;44.108;3.074;2023-05-07T03:23:54;5.10;;;1.70;;
48813;SDS011;34634;44.108;3.074;2023-05-07T03:26:20;6.22;;;1.80;;
48813;SDS011;34634;44.108;3.074;2023-05-07T03:28:46;4.50;;;1.70;;
48813;SDS011;34634;44.108;3.074;2023-05-07T03:31:13;8.45;;;2.00;;
48813;SDS011;34634;44.108;3.074;2023-05-07T03:33:49;4.75;;;1.45;;
48813;SDS011;34634;44.108;3.074;2023-05-07T03:36:16;2.75;;;1.50;;
48813;SDS011;34634;44.108;3.074;2023-05-07T03:38:43;2.95;;;1.38;;
48813;SDS011;34634;44.108;3.074;2023-05-07T03:41:09;4.88;;;1.30;;
48813;SDS011;34634;44.108;3.074;2023-05-07T03:43:35;6.90;;;1.38;;
48813;SDS011;34634;44.108;3.074;2023-05-07T03:46:02;5.65;;;1.65;;
48813;SDS011;34634;44.108;3.074;2023-05-07T03:48:28;3.00;;;1.40;;
48813;SDS011;34634;44.108;3.074;2023-05-07T03:50:55;5.03;;;1.52;;
48813;SDS011;34634;44.108;3.074;2023-05-07T03:53:22;5.45;;;1.80;;
48813;SDS011;34634;44.108;3.074;2023-05-07T03:55:48;6.72;;;1.63;;
48813;SDS011;34634;44.108;3.074;2023-05-07T03:58:15;10.23;;;1.70;;
48813;SDS011;34634;44.108;3.074;2023-05-07T04:00:41;3.40;;;1.60;;
48813;SDS011;34634;44.108;3.074;2023-05-07T04:03:07;5.47;;;1.92;;
48813;SDS011;34634;44.108;3.074;2023-05-07T04:05:34;3.88;;;1.88;;
48813;SDS011;34634;44.108;3.074;2023-05-07T04:08:00;4.45;;;1.40;;
48813;SDS011;34634;44.108;3.074;2023-05-07T04:10:29;2.50;;;1.48;;
48813;SDS011;34634;44.108;3.074;2023-05-07T04:12:55;10.55;;;1.52;;
48813;SDS011;34634;44.108;3.074;2023-05-07T04:15:22;3.42;;;1.55;;
48813;SDS011;34634;44.108;3.074;2023-05-07T04:17:49;3.28;;;1.65;;
48813;SDS011;34634;44.108;3.074;2023-05-07T04:20:16;2.38;;;1.23;;
48813;SDS011;34634;44.108;3.074;2023-05-07T04:22:42;3.90;;;1.75;;
48813;SDS011;34634;44.108;3.074;2023-05-07T04:25:09;2.65;;;1.30;;
48813;SDS011;34634;44.108;3.074;2023-05-07T04:27:35;5.63;;;1.33;;
48813;SDS011;34634;44.108;3.074;2023-05-07T04:30:03;2.47;;;1.38;;
48813;SDS011;34634;44.108;3.074;2023-05-07T04:32:29;2.88;;;1.38;;
48813;SDS011;34634;44.108;3.074;2023-05-07T04:34:56;2.13;;;1.40;;
48813;SDS011;34634;44.108;3.074;2023-05-07T04:37:22;3.47;;;1.52;;
48813;SDS011;34634;44.108;3.074;2023-05-07T04:39:48;7.00;;;1.65;;
48813;SDS011;34634;44.108;3.074;2023-05-07T04:42:15;3.50;;;1.50;;
48813;SDS011;34634;44.108;3.074;2023-05-07T04:44:43;6.40;;;1.67;;
48813;SDS011;34634;44.108;3.074;2023-05-07T04:47:10;4.30;;;1.50;;
48813;SDS011;34634;44.108;3.074;2023-05-07T04:49:37;4.80;;;1.55;;
48813;SDS011;34634;44.108;3.074;2023-05-07T04:52:04;3.65;;;1.48;;
48813;SDS011;34634;44.108;3.074;2023-05-07T04:54:30;3.78;;;1.20;;
48813;SDS011;34634;44.108;3.074;2023-05-07T04:56:57;3.83;;;1.33;;
48813;SDS011;34634;44.108;3.074;2023-05-07T04:59:23;1.70;;;1.38;;
48813;SDS011;34634;44.108;3.074;2023-05-07T05:01:49;2.80;;;1.40;;
48813;SDS011;34634;44.108;3.074;2023-05-07T05:04:16;5.30;;;1.70;;
48813;SDS011;34634;44.108;3.074;2023-05-07T05:06:42;6.75;;;1.30;;
48813;SDS011;34634;44.108;3.074;2023-05-07T05:09:08;2.92;;;1.30;;
48813;SDS011;34634;44.108;3.074;2023-05-07T05:11:35;2.97;;;1.45;;
48813;SDS011;34634;44.108;3.074;2023-05-07T05:14:01;1.77;;;1.25;;
48813;SDS011;34634;44.108;3.074;2023-05-07T05:16:28;2.42;;;1.40;;
48813;SDS011;34634;44.108;3.074;2023-05-07T05:18:54;2.88;;;1.38;;
48813;SDS011;34634;44.108;3.074;2023-05-07T05:21:20;1.77;;;1.38;;
48813;SDS011;34634;44.108;3.074;2023-05-07T05:23:47;2.03;;;1.30;;
48813;SDS011;34634;44.108;3.074;2023-05-07T05:26:13;1.35;;;1.20;;
48813;SDS011;34634;44.108;3.074;2023-05-07T05:28:39;2.75;;;1.27;;
48813;SDS011;34634;44.108;3.074;2023-05-07T05:31:06;1.98;;;1.10;;
48813;SDS011;34634;44.108;3.074;2023-05-07T05:33:32;2.78;;;1.48;;
48813;SDS011;34634;44.108;3.074;2023-05-07T05:35:58;2.67;;;1.40;;
48813;SDS011;34634;44.108;3.074;2023-05-07T05:38:25;2.25;;;1.30;;
48813;SDS011;34634;44.108;3.074;2023-05-07T05:40:51;2.88;;;1.40;;
48813;SDS011;34634;44.108;3.074;2023-05-07T05:43:17;2.50;;;1.40;;
48813;SDS011;34634;44.108;3.074;2023-05-07T05:45:43;2.83;;;1.30;;
48813;SDS011;34634;44.108;3.074;2023-05-07T05:48:10;1.80;;;1.48;;
48813;SDS011;34634;44.108;3.074;2023-05-07T05:50:36;2.25;;;1.30;;
48813;SDS011;34634;44.108;3.074;2023-05-07T05:53:02;2.15;;;1.50;;
48813;SDS011;34634;44.108;3.074;2023-05-07T05:55:29;2.42;;;1.52;;
48813;SDS011;34634;44.108;3.074;2023-05-07T05:57:58;1.63;;;1.30;;
48813;SDS011;34634;44.108;3.074;2023-05-07T06:00:24;3.78;;;1.13;;
48813;SDS011;34634;44.108;3.074;2023-05-07T06:02:50;1.10;;;1.00;;
48813;SDS011;34634;44.108;3.074;2023-05-07T06:05:17;4.22;;;1.30;;
48813;SDS011;34634;44.108;3.074;2023-05-07T06:07:43;3.35;;;1.10;;
48813;SDS011;34634;44.108;3.074;2023-05-07T06:10:09;6.38;;;1.60;;
48813;SDS011;34634;44.108;3.074;2023-05-07T06:12:36;3.17;;;1.45;;
48813;SDS011;34634;44.108;3.074;2023-05-07T06:15:02;2.08;;;1.33;;
48813;SDS011;34634;44.108;3.074;2023-05-07T06:17:29;3.83;;;1.30;;
48813;SDS011;34634;44.108;3.074;2023-05-07T06:19:55;3.00;;;1.67;;
48813;SDS011;34634;44.108;3.074;2023-05-07T06:22:22;6.82;;;1.25;;
48813;SDS011;34634;44.108;3.074;2023-05-07T06:24:48;2.85;;;1.50;;
48813;SDS011;34634;44.108;3.074;2023-05-07T06:27:14;3.33;;;1.50;;
48813;SDS011;34634;44.108;3.074;2023-05-07T06:29:41;2.50;;;1.17;;
48813;SDS011;34634;44.108;3.074;2023-05-07T06:32:11;2.80;;;1.33;;
48813;SDS011;34634;44.108;3.074;2023-05-07T06:34:38;3.50;;;1.20;;
48813;SDS011;34634;44.108;3.074;2023-05-07T06:37:05;4.88;;;1.30;;
48813;SDS011;34634;44.108;3.074;2023-05-07T06:39:31;1.88;;;1.20;;
48813;SDS011;34634;44.108;3.074;2023-05-07T06:41:59;4.78;;;1.15;;
48813;SDS011;34634;44.108;3.074;2023-05-07T06:44:25;5.60;;;1.40;;
48813;SDS011;34634;44.108;3.074;2023-05-07T06:46:52;1.20;;;1.10;;
48813;SDS011;34634;44.108;3.074;2023-05-07T06:49:18;2.42;;;1.23;;
48813;SDS011;34634;44.108;3.074;2023-05-07T06:51:44;1.70;;;1.30;;
48813;SDS011;34634;44.108;3.074;2023-05-07T06:54:11;2.28;;;1.25;;
48813;SDS011;34634;44.108;3.074;2023-05-07T06:56:37;2.55;;;1.13;;
48813;SDS011;34634;44.108;3.074;2023-05-07T06:59:03;2.78;;;1.23;;
48813;SDS011;34634;44.108;3.074;2023-05-07T07:01:30;2.30;;;1.13;;
48813;SDS011;34634;44.108;3.074;2023-05-07T07:03:56;1.90;;;1.27;;
48813;SDS011;34634;44.108;3.074;2023-05-07T07:06:22;1.27;;;1.13;;
48813;SDS011;34634;44.108;3.074;2023-05-07T07:08:49;1.30;;;1.00;;
48813;SDS011;34634;44.108;3.074;2023-05-07T07:11:15;1.08;;;0.80;;
48813;SDS011;34634;44.108;3.074;2023-05-07T07:13:41;3.28;;;0.90;;
48813;SDS011;34634;44.108;3.074;2023-05-07T07:16:08;1.63;;;1.10;;
48813;SDS011;34634;44.108;3.074;2023-05-07T07:18:34;2.85;;;1.10;;
48813;SDS011;34634;44.108;3.074;2023-05-07T07:21:01;1.52;;;1.15;;
48813;SDS011;34634;44.108;3.074;2023-05-07T07:23:27;1.63;;;0.88;;
48813;SDS011;34634;44.108;3.074;2023-05-07T07:25:53;3.45;;;1.05;;
48813;SDS011;34634;44.108;3.074;2023-05-07T07:28:20;2.38;;;1.00;;
48813;SDS011;34634;44.108;3.074;2023-05-07T07:30:47;1.92;;;0.90;;
48813;SDS011;34634;44.108;3.074;2023-05-07T07:33:13;1.55;;;0.82;;
48813;SDS011;34634;44.108;3.074;2023-05-07T07:35:40;2.10;;;0.90;;
48813;SDS011;34634;44.108;3.074;2023-05-07T07:38:06;2.10;;;0.85;;
48813;SDS011;34634;44.108;3.074;2023-05-07T07:40:34;1.98;;;1.02;;
48813;SDS011;34634;44.108;3.074;2023-05-07T07:43:01;1.00;;;0.73;;
48813;SDS011;34634;44.108;3.074;2023-05-07T07:45:27;2.38;;;1.00;;
48813;SDS011;34634;44.108;3.074;2023-05-07T07:47:54;2.30;;;1.00;;
48813;SDS011;34634;44.108;3.074;2023-05-07T07:50:20;1.00;;;0.70;;
48813;SDS011;34634;44.108;3.074;2023-05-07T07:52:47;4.35;;;0.80;;
48813;SDS011;34634;44.108;3.074;2023-05-07T07:55:14;2.60;;;0.63;;
48813;SDS011;34634;44.108;3.074;2023-05-07T07:57:46;3.00;;;0.90;;
48813;SDS011;34634;44.108;3.074;2023-05-07T08:00:12;1.42;;;0.95;;
48813;SDS011;34634;44.108;3.074;2023-05-07T08:02:39;2.22;;;1.00;;
48813;SDS011;34634;44.108;3.074;2023-05-07T08:05:05;1.77;;;0.95;;
48813;SDS011;34634;44.108;3.074;2023-05-07T08:07:32;1.63;;;1.00;;
48813;SDS011;34634;44.108;3.074;2023-05-07T08:09:58;1.98;;;1.15;;
48813;SDS011;34634;44.108;3.074;2023-05-07T08:12:24;2.50;;;1.10;;
48813;SDS011;34634;44.108;3.074;2023-05-07T08:14:51;1.85;;;0.93;;
48813;SDS011;34634;44.108;3.074;2023-05-07T08:17:17;3.00;;;0.95;;
48813;SDS011;34634;44.108;3.074;2023-05-07T08:19:43;1.30;;;0.80;;
48813;SDS011;34634;44.108;3.074;2023-05-07T08:22:10;1.67;;;1.10;;
48813;SDS011;34634;44.108;3.074;2023-05-07T08:24:36;1.33;;;0.80;;
48813;SDS011;34634;44.108;3.074;2023-05-07T08:27:03;4.53;;;1.20;;
48813;SDS011;34634;44.108;3.074;2023-05-07T08:29:29;1.60;;;0.90;;
48813;SDS011;34634;44.108;3.074;2023-05-07T08:31:55;1.52;;;0.90;;
48813;SDS011;34634;44.108;3.074;2023-05-07T08:34:22;0.63;;;0.60;;
48813;SDS011;34634;44.108;3.074;2023-05-07T08:36:48;3.35;;;1.08;;
48813;SDS011;34634;44.108;3.074;2023-05-07T08:39:15;1.40;;;0.80;;
48813;SDS011;34634;44.108;3.074;2023-05-07T08:41:45;1.02;;;0.93;;
48813;SDS011;34634;44.108;3.074;2023-05-07T08:44:12;1.98;;;0.90;;
48813;SDS011;34634;44.108;3.074;2023-05-07T08:46:39;3.70;;;0.93;;
48813;SDS011;34634;44.108;3.074;2023-05-07T08:49:05;1.95;;;0.90;;
48813;SDS011;34634;44.108;3.074;2023-05-07T08:51:32;2.85;;;1.10;;
48813;SDS011;34634;44.108;3.074;2023-05-07T08:53:58;3.05;;;1.30;;
48813;SDS011;34634;44.108;3.074;2023-05-07T08:56:25;3.53;;;1.00;;
48813;SDS011;34634;44.108;3.074;2023-05-07T08:58:51;1.63;;;0.93;;
48813;SDS011;34634;44.108;3.074;2023-05-07T09:01:21;4.33;;;1.40;;
48813;SDS011;34634;44.108;3.074;2023-05-07T09:03:49;1.15;;;1.02;;
48813;SDS011;34634;44.108;3.074;2023-05-07T09:06:15;3.25;;;0.98;;
48813;SDS011;34634;44.108;3.074;2023-05-07T09:08:48;1.92;;;1.10;;
48813;SDS011;34634;44.108;3.074;2023-05-07T09:11:16;2.35;;;0.90;;
48813;SDS011;34634;44.108;3.074;2023-05-07T09:13:42;4.88;;;0.80;;
48813;SDS011;34634;44.108;3.074;2023-05-07T09:16:11;2.10;;;0.98;;
48813;SDS011;34634;44.108;3.074;2023-05-07T09:18:44;1.67;;;0.93;;
48813;SDS011;34634;44.108;3.074;2023-05-07T09:21:15;2.03;;;1.20;;
48813;SDS011;34634;44.108;3.074;2023-05-07T09:23:41;1.10;;;1.00;;
48813;SDS011;34634;44.108;3.074;2023-05-07T09:26:08;4.40;;;1.15;;
48813;SDS011;34634;44.108;3.074;2023-05-07T09:28:40;1.42;;;0.95;;
48813;SDS011;34634;44.108;3.074;2023-05-07T09:31:07;1.88;;;1.10;;
48813;SDS011;34634;44.108;3.074;2023-05-07T09:33:34;1.38;;;0.70;;
48813;SDS011;34634;44.108;3.074;2023-05-07T09:36:07;0.98;;;0.70;;
48813;SDS011;34634;44.108;3.074;2023-05-07T09:38:34;1.75;;;0.70;;
48813;SDS011;34634;44.108;3.074;2023-05-07T09:41:03;2.85;;;0.82;;
48813;SDS011;34634;44.108;3.074;2023-05-07T09:43:34;1.42;;;0.70;;
48813;SDS011;34634;44.108;3.074;2023-05-07T09:46:02;1.85;;;0.70;;
48813;SDS011;34634;44.108;3.074;2023-05-07T09:48:29;2.85;;;1.00;;
48813;SDS011;34634;44.108;3.074;2023-05-07T09:50:56;1.85;;;0.70;;
48813;SDS011;34634;44.108;3.074;2023-05-07T09:53:23;1.30;;;0.75;;
48813;SDS011;34634;44.108;3.074;2023-05-07T09:55:50;1.38;;;0.70;;
48813;SDS011;34634;44.108;3.074;2023-05-07T09:58:18;1.77;;;0.70;;
48813;SDS011;34634;44.108;3.074;2023-05-07T10:00:44;1.50;;;0.60;;
48813;SDS011;34634;44.108;3.074;2023-05-07T10:03:12;2.40;;;0.52;;
48813;SDS011;34634;44.108;3.074;2023-05-07T10:05:39;0.60;;;0.47;;
48813;SDS011;34634;44.108;3.074;2023-05-07T10:08:06;2.90;;;0.70;;
48813;SDS011;34634;44.108;3.074;2023-05-07T10:10:33;0.40;;;0.40;;
48813;SDS011;34634;44.108;3.074;2023-05-07T10:13:00;1.55;;;0.50;;
48813;SDS011;34634;44.108;3.074;2023-05-07T10:15:30;1.15;;;0.80;;
48813;SDS011;34634;44.108;3.074;2023-05-07T10:17:57;3.30;;;0.70;;
48813;SDS011;34634;44.108;3.074;2023-05-07T10:20:24;1.35;;;0.73;;
48813;SDS011;34634;44.108;3.074;2023-05-07T10:22:50;0.70;;;0.50;;
48813;SDS011;34634;44.108;3.074;2023-05-07T10:25:25;0.73;;;0.60;;
48813;SDS011;34634;44.108;3.074;2023-05-07T10:27:54;3.10;;;0.60;;
48813;SDS011;34634;44.108;3.074;2023-05-07T10:32:57;2.53;;;0.82;;
48813;SDS011;34634;44.108;3.074;2023-05-07T10:35:31;1.00;;;0.70;;
48813;SDS011;34634;44.108;3.074;2023-05-07T10:37:58;2.08;;;0.70;;
48813;SDS011;34634;44.108;3.074;2023-05-07T10:40:24;1.65;;;0.80;;
48813;SDS011;34634;44.108;3.074;2023-05-07T10:42:57;2.38;;;0.70;;
48813;SDS011;34634;44.108;3.074;2023-05-07T10:45:28;1.15;;;0.70;;
48813;SDS011;34634;44.108;3.074;2023-05-07T10:48:07;2.65;;;0.88;;
48813;SDS011;34634;44.108;3.074;2023-05-07T10:50:33;3.63;;;0.73;;
48813;SDS011;34634;44.108;3.074;2023-05-07T10:58:27;3.50;;;0.68;;
48813;SDS011;34634;44.108;3.074;2023-05-07T11:00:56;2.55;;;0.80;;
48813;SDS011;34634;44.108;3.074;2023-05-07T11:03:22;2.33;;;0.80;;
48813;SDS011;34634;44.108;3.074;2023-05-07T11:06:08;2.95;;;0.90;;
48813;SDS011;34634;44.108;3.074;2023-05-07T11:11:16;5.03;;;0.75;;
48813;SDS011;34634;44.108;3.074;2023-05-07T11:16:18;2.28;;;0.80;;
48813;SDS011;34634;44.108;3.074;2023-05-07T11:18:45;2.00;;;0.80;;
48813;SDS011;34634;44.108;3.074;2023-05-07T11:21:12;0.93;;;0.70;;
48813;SDS011;34634;44.108;3.074;2023-05-07T11:26:09;2.88;;;1.10;;
48813;SDS011;34634;44.108;3.074;2023-05-07T11:28:37;3.58;;;1.00;;
48813;SDS011;34634;44.108;3.074;2023-05-07T11:31:04;1.73;;;0.90;;
48813;SDS011;34634;44.108;3.074;2023-05-07T11:33:30;1.08;;;0.88;;
48813;SDS011;34634;44.108;3.074;2023-05-07T11:35:57;1.52;;;0.90;;
48813;SDS011;34634;44.108;3.074;2023-05-07T11:38:25;1.88;;;1.00;;
48813;SDS011;34634;44.108;3.074;2023-05-07T11:40:52;2.45;;;1.13;;
48813;SDS011;34634;44.108;3.074;2023-05-07T11:43:18;2.28;;;0.90;;
48813;SDS011;34634;44.108;3.074;2023-05-07T11:45:45;1.88;;;0.93;;
48813;SDS011;34634;44.108;3.074;2023-05-07T11:48:12;4.70;;;1.30;;
48813;SDS011;34634;44.108;3.074;2023-05-07T11:50:51;1.83;;;0.90;;
48813;SDS011;34634;44.108;3.074;2023-05-07T11:53:19;2.10;;;0.80;;
48813;SDS011;34634;44.108;3.074;2023-05-07T11:55:45;2.83;;;1.00;;
48813;SDS011;34634;44.108;3.074;2023-05-07T11:58:12;2.03;;;1.00;;
48813;SDS011;34634;44.108;3.074;2023-05-07T12:00:38;1.00;;;0.90;;
48813;SDS011;34634;44.108;3.074;2023-05-07T12:03:05;2.35;;;0.82;;
48813;SDS011;34634;44.108;3.074;2023-05-07T12:05:31;2.38;;;0.90;;
48813;SDS011;34634;44.108;3.074;2023-05-07T12:07:57;3.00;;;1.02;;
48813;SDS011;34634;44.108;3.074;2023-05-07T12:10:24;1.30;;;0.90;;
48813;SDS011;34634;44.108;3.074;2023-05-07T12:12:50;3.05;;;1.00;;
48813;SDS011;34634;44.108;3.074;2023-05-07T12:15:17;3.00;;;1.05;;
48813;SDS011;34634;44.108;3.074;2023-05-07T12:17:43;3.45;;;1.00;;
48813;SDS011;34634;44.108;3.074;2023-05-07T12:20:10;3.50;;;1.20;;
48813;SDS011;34634;44.108;3.074;2023-05-07T12:22:36;2.47;;;0.82;;
48813;SDS011;34634;44.108;3.074;2023-05-07T12:25:03;2.03;;;0.90;;
48813;SDS011;34634;44.108;3.074;2023-05-07T12:27:29;2.58;;;1.10;;
48813;SDS011;34634;44.108;3.074;2023-05-07T12:29:56;1.70;;;0.85;;
48813;SDS011;34634;44.108;3.074;2023-05-07T12:32:23;2.22;;;1.10;;
48813;SDS011;34634;44.108;3.074;2023-05-07T12:34:50;1.73;;;0.80;;
48813;SDS011;34634;44.108;3.074;2023-05-07T12:37:17;2.67;;;0.93;;
48813;SDS011;34634;44.108;3.074;2023-05-07T12:39:49;2.30;;;0.90;;
48813;SDS011;34634;44.108;3.074;2023-05-07T12:42:15;2.75;;;1.00;;
48813;SDS011;34634;44.108;3.074;2023-05-07T12:44:43;2.78;;;0.90;;
48813;SDS011;34634;44.108;3.074;2023-05-07T12:47:11;5.67;;;1.10;;
48813;SDS011;34634;44.108;3.074;2023-05-07T12:49:38;3.75;;;1.48;;
48813;SDS011;34634;44.108;3.074;2023-05-07T12:52:05;2.47;;;1.23;;
48813;SDS011;34634;44.108;3.074;2023-05-07T12:54:32;3.10;;;1.42;;
48813;SDS011;34634;44.108;3.074;2023-05-07T12:57:05;5.43;;;1.60;;
48813;SDS011;34634;44.108;3.074;2023-05-07T13:01:58;4.95;;;1.15;;
48813;SDS011;34634;44.108;3.074;2023-05-07T13:04:25;5.13;;;1.10;;
48813;SDS011;34634;44.108;3.074;2023-05-07T13:06:51;3.05;;;1.17;;
48813;SDS011;34634;44.108;3.074;2023-05-07T13:09:17;2.95;;;1.13;;
48813;SDS011;34634;44.108;3.074;2023-05-07T13:11:44;3.00;;;1.33;;
48813;SDS011;34634;44.108;3.074;2023-05-07T13:14:10;2.67;;;1.25;;
48813;SDS011;34634;44.108;3.074;2023-05-07T13:16:36;3.28;;;1.23;;
48813;SDS011;34634;44.108;3.074;2023-05-07T13:19:03;4.43;;;1.25;;
48813;SDS011;34634;44.108;3.074;2023-05-07T13:21:29;5.20;;;1.23;;
48813;SDS011;34634;44.108;3.074;2023-05-07T13:23:58;2.80;;;1.25;;
48813;SDS011;34634;44.108;3.074;2023-05-07T13:26:24;4.60;;;1.38;;
48813;SDS011;34634;44.108;3.074;2023-05-07T13:28:52;3.13;;;1.35;;
48813;SDS011;34634;44.108;3.074;2023-05-07T13:31:18;4.15;;;1.20;;
48813;SDS011;34634;44.108;3.074;2023-05-07T13:33:46;4.72;;;1.25;;
48813;SDS011;34634;44.108;3.074;2023-05-07T13:36:12;2.40;;;0.90;;
48813;SDS011;34634;44.108;3.074;2023-05-07T13:38:39;4.00;;;1.15;;
48813;SDS011;34634;44.108;3.074;2023-05-07T13:41:05;4.05;;;1.10;;
48813;SDS011;34634;44.108;3.074;2023-05-07T13:43:31;3.10;;;1.27;;
48813;SDS011;34634;44.108;3.074;2023-05-07T13:46:01;1.27;;;0.90;;
48813;SDS011;34634;44.108;3.074;2023-05-07T13:48:27;3.35;;;1.15;;
48813;SDS011;34634;44.108;3.074;2023-05-07T13:50:54;5.38;;;1.48;;
48813;SDS011;34634;44.108;3.074;2023-05-07T13:53:20;5.57;;;1.70;;
48813;SDS011;34634;44.108;3.074;2023-05-07T13:55:46;2.22;;;1.05;;
48813;SDS011;34634;44.108;3.074;2023-05-07T13:58:12;2.22;;;1.02;;
48813;SDS011;34634;44.108;3.074;2023-05-07T14:00:39;3.35;;;1.40;;
48813;SDS011;34634;44.108;3.074;2023-05-07T14:03:05;4.03;;;1.30;;
48813;SDS011;34634;44.108;3.074;2023-05-07T14:05:31;3.55;;;1.42;;
48813;SDS011;34634;44.108;3.074;2023-05-07T14:07:58;4.40;;;1.30;;
48813;SDS011;34634;44.108;3.074;2023-05-07T14:10:24;2.90;;;1.42;;
48813;SDS011;34634;44.108;3.074;2023-05-07T14:12:51;6.35;;;1.33;;
48813;SDS011;34634;44.108;3.074;2023-05-07T14:15:17;2.42;;;1.10;;
48813;SDS011;34634;44.108;3.074;2023-05-07T14:17:44;5.13;;;1.30;;
48813;SDS011;34634;44.108;3.074;2023-05-07T14:20:11;3.80;;;1.20;;
48813;SDS011;34634;44.108;3.074;2023-05-07T14:22:37;3.05;;;1.10;;
48813;SDS011;34634;44.108;3.074;2023-05-07T14:25:04;4.00;;;1.38;;
48813;SDS011;34634;44.108;3.074;2023-05-07T14:27:30;5.38;;;1.10;;
48813;SDS011;34634;44.108;3.074;2023-05-07T14:29:56;7.93;;;1.20;;
48813;SDS011;34634;44.108;3.074;2023-05-07T14:32:23;2.85;;;1.23;;
48813;SDS011;34634;44.108;3.074;2023-05-07T14:34:49;3.70;;;1.13;;
48813;SDS011;34634;44.108;3.074;2023-05-07T14:37:16;2.30;;;1.10;;
48813;SDS011;34634;44.108;3.074;2023-05-07T14:39:45;3.10;;;0.90;;
48813;SDS011;34634;44.108;3.074;2023-05-07T14:42:11;4.97;;;1.50;;
48813;SDS011;34634;44.108;3.074;2023-05-07T14:44:37;3.28;;;1.20;;
48813;SDS011;34634;44.108;3.074;2023-05-07T14:47:06;1.30;;;0.80;;
48813;SDS011;34634;44.108;3.074;2023-05-07T14:49:33;2.35;;;0.98;;
48813;SDS011;34634;44.108;3.074;2023-05-07T14:51:59;3.75;;;1.08;;
48813;SDS011;34634;44.108;3.074;2023-05-07T14:54:26;4.43;;;1.45;;
48813;SDS011;34634;44.108;3.074;2023-05-07T14:56:52;2.55;;;1.17;;
48813;SDS011;34634;44.108;3.074;2023-05-07T14:59:19;1.70;;;0.90;;
48813;SDS011;34634;44.108;3.074;2023-05-07T15:01:49;5.07;;;0.80;;
48813;SDS011;34634;44.108;3.074;2023-05-07T15:04:15;4.60;;;1.23;;
48813;SDS011;34634;44.108;3.074;2023-05-07T15:06:42;3.05;;;0.90;;